Jericho, Vermont
Current Conditions -  °F | °C
As of 7:54 PM on Sunday 21 Dec 2014 (Local Time) from KBTV Reporting Station
Overcast Overcast  
Wind Chill: 25°   Ceiling: 3000
Heat Index: 25°   Visibility: 7mi
Dew Point: 20°   Wind: 0mph
Humidity: 81%   Direction: NA
Pressure: 30.37"   Gusts: NA
Location:  44.5°N, 73°W
Report Text: KBTV 220054Z 00000KT 7SM OVC030 M04/M07 A3037 RMK AO2 SLP291 T10391067
Loading
Personal Weather Stations






























Interactive Weather Map New forecast layout! Learn more

10-Day Weather Forecast

Advertisements
Track Severe Weather on mobile